WEATHER DATA

YESTERDAY
Time Temp. Dewp. Hum. Wind dir Wind speed Wind gust Bar. 1h Prec. 24h Prec.
00:05 9.3 9.2 99 215 3.3 7.5 1018 0.0000 0.0000
00:14 9.3 9.2 99 217 3.3 7.5 1018.3 0.0000 0.0000
00:24 9.4 9.3 99 212 2.8 6.7 1018.5 0.0000 0.0000
00:35 9.4 9.3 99 223 3.3 6.1 1018.7 0.0000 0.0000
00:45 9.5 9.4 99 218 3.3 7.8 1018.9 0.0000 0.0000
00:55 9.5 9.4 99 223 1.7 3.3 1019 0.0000 0.0000
01:05 9.6 9.5 99 225 1.9 4.4 1019.2 0.0000 0.0000
01:15 9.6 9.5 99 210 1.7 5 1019.4 0.0000 0.0000
01:25 9.7 9.6 99 202 1.7 2.8 1019.5 0.0000 0.0000
01:35 9.7 9.6 99 218 1.1 2.5 1019.7 0.0000 0.0000
01:45 9.7 9.6 99 225 1.7 4.2 1019.9 0.0000 0.0000
01:55 9.8 9.7 99 228 2.8 6.9 1020 0.0000 0.0000
02:05 9.8 9.7 99 221 2.5 6.9 1020.2 0.0000 0.0000
02:16 9.9 9.8 99 226 2.5 6.1 1020.4 0.0000 0.0000
02:25 9.9 9.8 99 223 2.8 5.3 1020.5 0.0000 0.0000
02:35 9.9 9.8 99 227 2.8 5 1020.6 0.0000 0.0000
02:56 9.8 9.8 100 226 1.9 3.6 1020.9 0.0000 0.0000
03:06 9.8 9.7 99 231 1.7 3.3 1021 0.0000 0.0000
03:16 9.8 9.7 99 227 1.7 3.3 1021.1 0.0000 0.0000
03:26 9.8 9.7 99 231 1.7 2.8 1021.4 0.0000 0.0000
03:36 9.9 9.8 99 225 1.9 3.6 1021.5 0.0000 0.0000
03:47 9.8 9.7 99 223 1.9 4.2 1021.6 0.0000 0.0000
03:57 9.8 9.8 100 225 1.9 3.6 1021.7 0.0000 0.0000
04:06 9.7 9.7 100 225 1.9 3.6 1021.9 0.0000 0.0000
04:27 9.7 9.7 100 231 1.7 2.8 1022.2 0.0000 0.0000
04:37 9.7 9.6 99 234 1.1 1.9 1022.5 0.0000 0.0000
04:47 9.7 9.6 99 235 1.1 1.9 1022.7 0.0000 0.0000
04:57 9.8 9.7 99 231 1.1 2.5 1022.7 0.0000 0.0000
05:07 9.7 9.6 99 242 1.1 1.9 1022.7 0.0000 0.0000
05:17 9.6 9.6 100 236 1.1 2.8 1022.9 0.0000 0.0000
05:28 9.5 9.5 100 315 0.8 1.7 1022.9 0.0000 0.0000
05:38 9.3 9.3 100 245 1.1 2.5 1023.1 0.0000 0.0000
05:48 9.2 9.2 100 253 1.7 2.8 1023.3 0.0000 0.0000
05:57 9.1 9.1 100 243 1.1 2.8 1023.3 0.0000 0.0000
06:08 8.8 8.8 100 248 1.1 3.3 1023.5 0.0000 0.0000
06:28 8.6 8.6 100 230 1.7 3.6 1024 0.0000 0.0000
06:38 8.5 8.5 100 238 1.7 3.3 1024.1 0.0000 0.0000
06:48 8.4 8.3 99 247 1.7 3.3 1024.2 0.0000 0.0000
06:58 8.4 8.3 99 239 1.7 2.5 1024.3 0.0000 0.0000
07:08 8.4 8.3 99 226 1.7 2.8 1024.3 0.0000 0.0000
07:18 8.4 8.3 99 225 0.8 1.9 1024.5 0.0000 0.0000
07:38 8.4 8.3 99 226 1.1 2.5 1024.7 0.0000 0.0000
07:49 8.3 8.2 99 231 1.7 2.8 1025 0.0000 0.0000
07:59 8.3 8.2 99 261 1.1 2.5 1025.3 0.0000 0.0000
08:09 8.2 8.1 99 228 1.7 2.8 1025.4 0.0000 0.0000
08:19 8.2 8.1 99 246 1.1 1.9 1025.5 0.0000 0.0000
08:30 8.1 8 99 217 1.1 2.5 1025.5 0.0000 0.0000
08:39 8 7.9 99 239 1.9 2.8 1025.6 0.0000 0.0000
08:49 7.9 7.8 99 231 1.1 2.8 1025.7 0.0000 0.0000
09:00 7.8 7.7 99 221 0.8 1.9 1025.8 0.0000 0.0000
09:10 7.8 7.7 99 210 0.3 1.7 1025.8 0.0000 0.0000
09:20 7.8 7.7 99 132 0.8 1.9 1025.8 0.0000 0.0000
09:29 7.7 7.6 99 195 1.1 2.8 1025.9 0.0000 0.0000
09:40 7.8 7.7 99 190 1.1 2.8 1026 0.0000 0.0000
09:50 7.8 7.7 99 216 3.6 6.1 1026.1 0.0000 0.0000
10:00 7.9 7.8 99 142 2.8 7.8 1026.3 0.0000 0.0000
10:10 7.9 7.6 98 110 4.2 8.6 1026.4 0.0000 0.0000
10:21 8 7.7 98 103 3.6 7.5 1026.3 0.0000 0.0000
10:30 8.1 7.8 98 107 3.6 7.8 1026.3 0.0000 0.0000
10:40 8.2 7.9 98 108 3.6 7.8 1026.3 0.0000 0.0000
10:51 8.3 8 98 106 4.2 7.8 1026.4 0.0000 0.0000
10:56 8.3 8 98 90 3.6 7.8 1026.5 0.0000 0.0000
11:07 8.4 8.1 98 78 3.3 8.9 1026.4 0.0000 0.0000
11:17 8.6 8.3 98 77 3.3 7.8 1026.5 0.0000 0.0000
11:31 8.8 8.5 98 78 3.6 8.3 1026.3 0.0000 0.0000
11:53 9 8.7 98 66 3.6 6.9 1026.1 0.0000 0.0000
12:02 9.1 8.8 98 68 4.2 7.8 1026.1 0.0000 0.0000
12:13 9.2 8.9 98 77 5 9.4 1026 0.0000 0.0000
12:23 9.3 9 98 70 4.2 8.9 1026 0.0000 0.0000
12:32 9.4 9.1 98 71 4.4 6.9 1025.9 0.0000 0.0000
12:43 9.5 9.4 99 69 4.4 8.6 1025.8 0.0000 0.0000
12:53 9.6 9.5 99 69 4.4 6.9 1025.7 0.0000 0.0000
13:03 9.7 9.6 99 75 4.4 8.3 1025.6 0.0000 0.0000
13:13 9.8 9.7 99 73 4.4 10.3 1025.6 0.0000 0.0000
13:24 9.9 9.8 99 83 3.6 8.9 1025.5 0.0000 0.0000
13:33 10 9.9 99 83 4.2 9.7 1025.4 0.0000 0.0000
13:43 10 9.9 99 79 4.2 6.7 1025.2 0.0000 0.0000
13:54 10.1 9.9 99 85 4.2 6.7 1025.1 0.0000 0.0000
14:09 10.2 10 99 80 3.6 7.5 1025.3 0.0000 0.0000
14:19 10.3 10.1 99 80 3.6 6.9 1025.2 0.0000 0.0000
14:29 10.4 10.2 99 95 4.4 7.8 1025.1 0.0000 0.0000
14:39 10.4 10.4 100 96 4.4 9.7 1025.1 0.0000 0.0000
14:50 10.4 10.4 100 92 4.4 7.5 1025.1 0.0000 0.0000
14:59 10.4 10.4 100 95 5.8 9.4 1025.1 0.0000 0.0000
15:09 10.4 10.4 100 103 5.3 9.7 1025.2 0.0000 0.0000
15:20 10.4 10.4 100 103 4.4 8.3 1025.1 0.0000 0.0000
15:29 10.4 10.4 100 118 4.4 7.5 1025.2 0.0000 0.0000
15:40 10.4 10.4 100 204 4.4 6.9 1025.2 0.0000 0.0000
15:50 10.3 10.3 100 220 2.5 5.3 1025.2 0.0000 0.0000
16:00 10.3 10.3 100 219 3.3 5.8 1025.3 0.0000 0.0000
16:11 10.2 10.2 100 124 0.8 2.5 1025.3 0.0000 0.0000
16:21 10.1 10.1 100 121 1.1 1.9 1025.1 0.0000 0.0000
16:30 10.1 10.1 100 119 0.8 1.9 1025.1 0.0000 0.0000
16:41 10 10 100 111 1.1 2.5 1024.8 0.0000 0.0000
16:51 10 10 100 110 1.1 2.5 1024.8 0.0000 0.0000
17:01 9.9 9.9 100 100 1.1 2.5 1024.7 0.0000 0.0000
17:11 9.8 9.8 100 153 0.8 1.9 1024.7 0.0000 0.0000
17:21 9.7 9.7 100 90 0.8 1.9 1024.5 0.0000 0.0000
17:32 9.7 9.7 100 194 1.1 2.5 1024.5 0.0000 0.0000
17:41 9.6 9.6 100 160 1.7 3.3 1024.4 0.0000 0.0000
17:51 9.5 9.5 100 207 1.1 2.5 1024.5 0.0000 0.0000
18:02 9.4 9.4 100 191 1.1 2.8 1024.5 0.0000 0.0000
18:12 9.3 9.3 100 189 1.7 4.2 1024.3 0.0000 0.0000
18:22 9.2 9.2 100 204 1.7 3.3 1024.3 0.0000 0.0000
18:32 9.1 9.1 100 212 1.7 3.3 1024.3 0.0000 0.0000
18:42 9 9 100 209 1.7 2.5 1024.5 0.0000 0.0000
18:52 8.9 8.9 100 206 1.7 2.8 1024.4 0.0000 0.0000
19:02 8.8 8.8 100 197 1.7 2.8 1024.4 0.0000 0.0000
19:13 8.8 8.8 100 201 1.9 3.6 1024.4 0.0000 0.0000
19:23 8.8 8.8 100 195 1.9 3.3 1024.5 0.0000 0.0000
19:32 8.7 8.7 100 202 1.9 3.3 1024.3 0.0000 0.0000
19:43 8.6 8.6 100 198 1.7 3.3 1024.5 0.0000 0.0000
19:53 8.6 8.6 100 210 1.9 4.4 1024.4 0.0000 0.0000
20:03 8.5 8.5 100 215 1.7 3.3 1024.3 0.0000 0.0000
20:13 8.4 8.4 100 219 1.7 3.3 1024.3 0.0000 0.0000
20:23 8.3 8.3 100 219 1.7 2.8 1024.3 0.0000 0.0000
20:34 8.2 8.2 100 218 1.7 2.8 1024.4 0.0000 0.0000
20:44 8.2 8.2 100 211 1.7 3.6 1024.3 0.0000 0.0000
20:54 8.1 8.1 100 214 1.7 3.3 1024.3 0.0000 0.0000
21:04 8 8 100 196 1.7 2.8 1024.2 0.0000 0.0000
21:15 8 8 100 183 1.7 3.3 1024.1 0.0000 0.0000
21:20 8 8 100 200 1.9 2.8 1024.1 0.0000 0.0000
21:30 7.9 7.9 100 192 1.7 3.6 1024 0.0000 0.0000
21:40 7.9 7.9 100 216 1.9 4.2 1024 0.0000 0.0000
21:55 7.8 7.8 100 209 1.7 4.2 1023.9 0.0000 0.0000
22:05 7.8 7.8 100 205 1.9 3.6 1023.9 0.0000 0.0000
22:15 7.7 7.7 100 202 1.9 2.8 1023.8 0.0000 0.0000
22:25 7.7 7.7 100 212 1.9 4.2 1023.7 0.0000 0.0000
22:35 7.6 7.6 100 206 1.7 3.3 1023.6 0.0000 0.0000
22:45 7.6 7.6 100 215 1.7 2.8 1023.6 0.0000 0.0000
22:56 7.5 7.5 100 215 1.9 3.3 1023.6 0.0000 0.0000
23:06 7.5 7.5 100 201 1.7 3.6 1023.5 0.0000 0.0000
23:15 7.4 7.4 100 209 1.9 3.6 1023.5 0.0000 0.0000
23:26 7.4 7.4 100 210 1.7 3.6 1023.4 0.0000 0.0000
23:36 7.3 7.3 100 205 1.9 3.3 1023.3 0.0000 0.0000
23:46 7.3 7.3 100 200 1.7 3.3 1023.1 0.0000 0.0000
23:56 7.2 7.2 100 208 1.7 2.8 1023 0.0000

DAY STATISTIC

2020-01-16
TEMPERATURE
AVERAGE
9.0
HIGH
10.4
14:29
LOW
7.2
23:56
PRESSURE
AVERAGE
1023.9
HIGH
1026.5
10:56
LOW
1018.0
00:05
DEWPOINT
AVERAGE
8.9
HIGH
10.4
14:39
LOW
7.2
23:56
HUMIDITY
AVERAGE
99
HIGH
100
02:56
LOW
98
10:10
WIND SPEED
AVERAGE
2.3
HIGH
5.8
14:59
WIND GUST
AVERAGE
4.5
HIGH
10.3
13:13
WIND DIRECTION
PREVAILING
SW
51.8%
N
0.0
NE
0.7
E
24.1
SE
5.1
S
15.3
SW
51.8
W
2.2
NW
0.7
PRECIPITATION
RAIN HOUR
0.0
RAIN DAY
0.0
TEMPERATURE (°C)
LOW
7.2
HIGH
10.4
AVERAGE
9.0
PRESSURE (hpa)
LOW
1018.0
HIGH
1026.5
AVERAGE
1023.9
DEVICE